Time;durP1;ratioP1;P1;durP2;ratioP2;P2;SDS_P1;SDS_P2;PMS_P1;PMS_P2;Temp;Humidity;BMP_temperature;BMP_pressure;BME280_temperature;BME280_humidity;BME280_pressure;Samples;Min_cycle;Max_cycle;Signal;HPM_P1;HPM_P2
2023/05/26 00:01:46;;;;;;;17.00;8.30;;;12.00;99.90;;;;;;480883;248;28649;-81
2023/05/26 00:03:44;;;;;;;13.10;8.20;;;12.00;99.90;;;;;;480656;248;27973;-81
2023/05/26 00:05:47;;;;;;;17.10;7.43;;;;;;;;;;480823;248;28436;-82
2023/05/26 00:07:48;;;;;;;11.40;7.40;;;11.90;99.90;;;;;;480849;248;26811;-82
2023/05/26 00:12:06;;;;;;;14.17;7.90;;;11.90;99.90;;;;;;486594;233;28326;-82
2023/05/26 00:14:10;;;;;;;14.17;8.23;;;11.80;99.90;;;;;;474154;241;28102;-82
2023/05/26 00:16:09;;;;;;;15.87;7.90;;;11.80;99.90;;;;;;479826;241;28315;-80
2023/05/26 00:20:23;;;;;;;16.73;7.50;;;11.80;99.90;;;;;;464017;245;28113;-83
2023/05/26 00:22:22;;;;;;;11.43;7.37;;;11.70;99.90;;;;;;480925;234;28257;-82
2023/05/26 00:26:33;;;;;;;13.93;7.47;;;11.70;99.90;;;;;;495645;235;28229;-84
2023/05/26 00:28:35;;;;;;;12.27;7.57;;;11.60;99.90;;;;;;497375;238;27978;-83
2023/05/26 00:30:36;;;;;;;14.10;7.80;;;11.60;99.90;;;;;;495635;238;27989;-82
2023/05/26 00:32:37;;;;;;;14.70;7.87;;;11.60;99.90;;;;;;477568;238;28235;-83
2023/05/26 00:34:38;;;;;;;14.13;8.50;;;11.50;99.90;;;;;;471880;246;28331;-83
2023/05/26 00:36:40;;;;;;;11.90;7.27;;;11.50;99.90;;;;;;471659;249;28315;-84
2023/05/26 00:38:41;;;;;;;13.40;7.60;;;11.50;99.90;;;;;;483433;238;28485;-82
2023/05/26 00:40:42;;;;;;;11.43;6.80;;;11.40;99.90;;;;;;492141;240;28274;-83
2023/05/26 00:42:43;;;;;;;18.63;8.20;;;11.40;99.90;;;;;;495398;241;28337;-83
2023/05/26 00:46:59;;;;;;;12.87;8.10;;;11.30;99.90;;;;;;474645;239;28995;-81
2023/05/26 00:49:00;;;;;;;14.10;8.33;;;11.30;99.90;;;;;;475388;247;28010;-80
2023/05/26 00:51:02;;;;;;;12.90;8.13;;;11.30;99.90;;;;;;475391;249;28137;-83
2023/05/26 00:55:13;;;;;;;13.43;8.50;;;11.30;99.90;;;;;;484793;238;28517;-79
2023/05/26 00:57:14;;;;;;;16.63;9.20;;;11.20;99.90;;;;;;485042;246;28269;-79
2023/05/26 00:59:15;;;;;;;16.07;9.37;;;11.20;99.90;;;;;;485053;244;27931;-80
2023/05/26 01:01:17;;;;;;;16.07;8.90;;;11.20;99.90;;;;;;485032;243;27861;-80
2023/05/26 01:03:18;;;;;;;13.60;8.47;;;11.20;99.90;;;;;;485064;245;27922;-79
2023/05/26 01:05:19;;;;;;;14.73;9.50;;;11.20;99.90;;;;;;485034;246;28333;-80
2023/05/26 01:07:20;;;;;;;14.90;8.23;;;11.20;99.90;;;;;;485030;242;27919;-79
2023/05/26 01:09:22;;;;;;;16.60;9.10;;;11.10;99.90;;;;;;485071;246;27966;-83
2023/05/26 01:11:23;;;;;;;12.70;8.37;;;11.10;99.90;;;;;;485033;246;28177;-81
2023/05/26 01:13:24;;;;;;;16.47;8.57;;;11.10;99.90;;;;;;485053;246;27902;-79
2023/05/26 01:15:26;;;;;;;16.03;8.70;;;11.10;99.90;;;;;;485020;245;28011;-80
2023/05/26 01:17:27;;;;;;;14.30;9.50;;;11.10;99.90;;;;;;485080;246;28519;-80
2023/05/26 01:19:28;;;;;;;15.50;8.70;;;11.00;99.90;;;;;;485036;245;28154;-79
2023/05/26 01:21:29;;;;;;;14.80;9.07;;;11.00;99.90;;;;;;485036;246;28207;-79
2023/05/26 01:23:32;;;;;;;14.03;8.50;;;11.00;99.90;;;;;;485009;245;27905;-80
2023/05/26 01:25:32;;;;;;;14.10;8.60;;;11.00;99.90;;;;;;484883;243;28105;-82
2023/05/26 01:27:33;;;;;;;12.33;8.77;;;11.00;99.90;;;;;;485025;243;28082;-81
2023/05/26 01:29:35;;;;;;;14.43;9.30;;;10.90;99.90;;;;;;485058;246;28100;-81
2023/05/26 01:31:38;;;;;;;14.30;8.33;;;10.90;99.90;;;;;;484966;244;28271;-80
2023/05/26 01:33:37;;;;;;;11.53;8.40;;;10.80;99.90;;;;;;484826;246;28096;-81
2023/05/26 01:35:38;;;;;;;12.70;8.97;;;10.80;99.90;;;;;;484993;246;28214;-80
2023/05/26 01:37:41;;;;;;;16.23;9.63;;;;;;;;;;485052;246;28193;-80
2023/05/26 01:39:42;;;;;;;11.20;9.00;;;10.70;99.90;;;;;;485027;241;27006;-80
2023/05/26 01:41:43;;;;;;;13.53;8.83;;;10.70;99.90;;;;;;485030;243;28120;-81
2023/05/26 01:43:44;;;;;;;17.20;9.60;;;10.70;99.90;;;;;;485025;246;28121;-81
2023/05/26 01:45:45;;;;;;;13.10;9.10;;;10.70;99.90;;;;;;485010;246;28201;-81
2023/05/26 01:47:47;;;;;;;15.60;9.47;;;10.70;99.90;;;;;;485018;246;28122;-79
2023/05/26 01:49:49;;;;;;;20.03;9.67;;;;;;;;;;485003;245;28060;-80
2023/05/26 01:51:51;;;;;;;16.37;9.40;;;10.60;99.90;;;;;;485029;241;27105;-80
2023/05/26 01:53:52;;;;;;;13.60;8.50;;;10.60;99.90;;;;;;484998;246;28261;-80
2023/05/26 01:55:53;;;;;;;16.53;9.00;;;10.60;99.90;;;;;;484978;246;28176;-79
2023/05/26 01:57:54;;;;;;;17.23;9.00;;;10.60;99.90;;;;;;484976;244;28170;-83
2023/05/26 01:59:55;;;;;;;15.90;9.23;;;10.60;99.90;;;;;;484992;243;27926;-83
2023/05/26 02:01:58;;;;;;;13.43;8.97;;;;;;;;;;484974;246;28072;-81
2023/05/26 02:03:59;;;;;;;11.47;8.73;;;10.50;99.90;;;;;;485006;244;27028;-84
2023/05/26 02:06:00;;;;;;;15.63;7.63;;;10.50;99.90;;;;;;484985;242;28123;-81
2023/05/26 02:08:02;;;;;;;16.47;9.50;;;10.50;99.90;;;;;;484973;246;27979;-79
2023/05/26 02:10:03;;;;;;;12.13;8.40;;;10.50;99.90;;;;;;484943;246;28171;-81
2023/05/26 02:12:06;;;;;;;15.73;8.97;;;10.40;99.90;;;;;;484970;246;28143;-81
2023/05/26 02:14:05;;;;;;;11.90;8.93;;;10.40;99.90;;;;;;484818;246;28094;-83
2023/05/26 02:16:06;;;;;;;19.90;9.60;;;10.40;99.90;;;;;;484905;246;28064;-80
2023/05/26 02:18:08;;;;;;;17.60;9.23;;;10.30;99.90;;;;;;484935;246;28111;-81
2023/05/26 02:20:09;;;;;;;17.43;9.60;;;10.30;99.90;;;;;;484971;245;27945;-83
2023/05/26 02:22:12;;;;;;;20.73;9.43;;;10.30;99.90;;;;;;484930;246;27986;-81
2023/05/26 02:24:11;;;;;;;18.03;8.77;;;10.30;99.90;;;;;;484808;243;27992;-80
2023/05/26 02:26:13;;;;;;;14.80;9.17;;;10.20;99.90;;;;;;484946;246;27974;-82
2023/05/26 02:28:14;;;;;;;14.50;9.47;;;10.20;99.90;;;;;;484940;246;27947;-83
2023/05/26 02:30:15;;;;;;;18.10;9.60;;;10.20;99.90;;;;;;484935;244;27955;-84
2023/05/26 02:32:17;;;;;;;13.53;9.17;;;10.20;99.90;;;;;;484944;246;27818;-82
2023/05/26 02:34:18;;;;;;;16.80;8.97;;;10.20;99.90;;;;;;484879;246;27833;-81
2023/05/26 02:36:19;;;;;;;17.37;9.73;;;10.20;99.90;;;;;;484896;245;27963;-82
2023/05/26 02:38:20;;;;;;;14.13;8.87;;;10.20;99.90;;;;;;484927;246;28073;-83
2023/05/26 02:40:22;;;;;;;16.13;9.30;;;10.10;99.90;;;;;;484919;245;27934;-84
2023/05/26 02:42:23;;;;;;;9.67;7.83;;;10.10;99.90;;;;;;484936;246;28053;-81
2023/05/26 02:44:24;;;;;;;17.40;9.70;;;10.10;99.90;;;;;;484876;244;27944;-80
2023/05/26 02:46:25;;;;;;;16.67;9.70;;;10.10;99.90;;;;;;484900;246;27969;-82
2023/05/26 02:48:27;;;;;;;17.33;9.87;;;10.10;99.90;;;;;;484925;244;27948;-83
2023/05/26 02:50:28;;;;;;;15.10;9.30;;;10.10;99.90;;;;;;484918;246;27994;-84
2023/05/26 02:52:29;;;;;;;10.80;8.40;;;10.00;99.90;;;;;;484952;246;27905;-82
2023/05/26 02:54:30;;;;;;;14.00;9.73;;;10.00;99.90;;;;;;484931;246;28211;-82
2023/05/26 02:56:32;;;;;;;10.33;8.10;;;10.00;99.90;;;;;;484966;246;27743;-81
2023/05/26 02:58:33;;;;;;;18.23;10.47;;;9.90;99.90;;;;;;484944;245;27858;-84
2023/05/26 03:00:34;;;;;;;20.33;10.50;;;9.90;99.90;;;;;;484942;244;27934;-81
2023/05/26 03:02:36;;;;;;;18.57;10.20;;;9.90;99.90;;;;;;484971;246;27872;-81
2023/05/26 03:04:37;;;;;;;13.87;9.60;;;9.90;99.90;;;;;;484926;246;27939;-83
2023/05/26 03:06:38;;;;;;;15.63;9.37;;;9.90;99.90;;;;;;484986;246;27856;-82
2023/05/26 03:08:39;;;;;;;16.83;9.83;;;9.90;99.90;;;;;;484963;245;27697;-82
2023/05/26 03:10:40;;;;;;;17.87;10.13;;;9.90;99.90;;;;;;484957;245;27827;-83
2023/05/26 03:12:42;;;;;;;18.37;11.10;;;9.80;99.90;;;;;;484878;244;28009;-81
2023/05/26 03:14:43;;;;;;;13.57;9.70;;;9.80;99.90;;;;;;484900;244;27959;-80
2023/05/26 03:16:44;;;;;;;18.23;10.40;;;9.80;99.90;;;;;;484917;246;27924;-83
2023/05/26 03:18:45;;;;;;;14.40;8.83;;;9.80;99.90;;;;;;484865;245;27919;-81
2023/05/26 03:20:47;;;;;;;18.60;11.00;;;9.70;99.90;;;;;;484900;246;27931;-81
2023/05/26 03:22:48;;;;;;;15.83;9.40;;;9.80;99.90;;;;;;484913;244;27851;-80
2023/05/26 03:24:49;;;;;;;18.73;10.00;;;9.80;99.90;;;;;;484857;243;27863;-82
2023/05/26 03:26:51;;;;;;;11.60;8.50;;;9.70;99.90;;;;;;484919;246;27839;-81
2023/05/26 03:28:52;;;;;;;17.90;9.87;;;9.80;99.90;;;;;;484907;246;27964;-82
2023/05/26 03:30:53;;;;;;;15.00;10.07;;;9.80;99.90;;;;;;484902;246;27862;-82
2023/05/26 03:32:54;;;;;;;16.00;9.60;;;9.70;99.90;;;;;;484864;246;27673;-83
2023/05/26 03:34:55;;;;;;;20.27;9.87;;;9.70;99.90;;;;;;484836;246;27832;-83
2023/05/26 03:36:57;;;;;;;19.40;10.00;;;9.70;99.90;;;;;;484843;246;27799;-82
2023/05/26 03:38:58;;;;;;;13.67;10.27;;;9.70;99.90;;;;;;484850;246;27933;-81
2023/05/26 03:40:59;;;;;;;13.30;8.80;;;9.70;99.90;;;;;;484892;246;27949;-81
2023/05/26 03:43:01;;;;;;;16.87;10.30;;;9.70;99.90;;;;;;484887;243;27941;-82
2023/05/26 03:45:02;;;;;;;21.77;9.77;;;9.70;99.90;;;;;;484872;246;27961;-81
2023/05/26 03:47:03;;;;;;;22.23;11.83;;;9.70;99.90;;;;;;484894;246;27864;-82
2023/05/26 03:49:04;;;;;;;18.03;10.87;;;9.70;99.90;;;;;;484921;246;27776;-82
2023/05/26 03:51:05;;;;;;;13.10;10.13;;;9.70;99.90;;;;;;484870;243;27948;-81
2023/05/26 03:53:07;;;;;;;17.40;10.60;;;9.70;99.90;;;;;;484858;246;27867;-83
2023/05/26 03:55:09;;;;;;;14.10;8.73;;;9.80;99.90;;;;;;484793;243;27928;-82
2023/05/26 03:57:09;;;;;;;21.17;11.10;;;9.80;99.90;;;;;;484781;246;27845;-83
2023/05/26 03:59:10;;;;;;;19.20;10.23;;;9.80;99.90;;;;;;484882;246;27615;-83
2023/05/26 04:01:12;;;;;;;20.23;10.70;;;9.70;99.90;;;;;;484839;246;27961;-83
2023/05/26 04:03:13;;;;;;;13.83;10.03;;;9.80;99.90;;;;;;484913;244;27921;-81
2023/05/26 04:05:14;;;;;;;16.07;10.20;;;9.80;99.90;;;;;;484808;245;27927;-84
2023/05/26 04:07:16;;;;;;;14.33;8.43;;;9.80;99.90;;;;;;484869;246;27878;-85
2023/05/26 04:09:17;;;;;;;16.00;9.00;;;9.80;99.90;;;;;;484876;245;28050;-82
2023/05/26 04:11:18;;;;;;;17.10;10.13;;;9.90;99.90;;;;;;484907;244;27695;-83
2023/05/26 04:13:19;;;;;;;12.87;9.70;;;9.80;99.90;;;;;;484952;246;28074;-83
2023/05/26 04:15:20;;;;;;;18.20;10.43;;;9.80;99.90;;;;;;484905;246;28141;-81
2023/05/26 04:17:22;;;;;;;15.63;9.20;;;9.80;99.90;;;;;;484944;245;27695;-81
2023/05/26 04:19:23;;;;;;;18.93;9.67;;;9.90;99.90;;;;;;484909;246;27961;-81
2023/05/26 04:21:24;;;;;;;17.07;9.13;;;9.90;99.90;;;;;;484922;246;28048;-82
2023/05/26 04:23:25;;;;;;;22.50;9.83;;;10.00;99.90;;;;;;484979;243;27791;-82
2023/05/26 04:25:27;;;;;;;14.63;8.87;;;10.00;99.90;;;;;;484960;246;27813;-83
2023/05/26 04:27:28;;;;;;;16.50;10.73;;;10.00;99.90;;;;;;484966;246;27869;-80
2023/05/26 04:29:29;;;;;;;14.23;9.10;;;10.00;99.90;;;;;;484971;243;27946;-81
2023/05/26 04:31:31;;;;;;;16.13;9.23;;;10.00;99.90;;;;;;485010;240;27881;-80
2023/05/26 04:33:32;;;;;;;19.77;10.03;;;10.10;99.90;;;;;;485002;246;28087;-80
2023/05/26 04:35:33;;;;;;;12.73;9.47;;;10.10;99.90;;;;;;484948;243;28435;-84
2023/05/26 04:37:34;;;;;;;17.27;8.90;;;10.10;99.90;;;;;;485005;246;27980;-81
2023/05/26 04:39:36;;;;;;;12.33;7.10;;;10.20;99.90;;;;;;484975;243;28158;-79
2023/05/26 04:41:38;;;;;;;15.90;9.53;;;10.30;99.90;;;;;;484987;240;28067;-79
2023/05/26 04:43:38;;;;;;;17.37;10.53;;;10.30;99.90;;;;;;484965;240;28002;-82
2023/05/26 04:45:43;;;;;;;13.20;9.10;;;10.20;99.90;;;;;;484998;246;28193;-81
2023/05/26 04:47:41;;;;;;;17.80;9.23;;;10.20;99.90;;;;;;484749;240;27955;-80
2023/05/26 04:49:42;;;;;;;18.40;10.17;;;10.20;99.90;;;;;;484009;240;27991;-79
2023/05/26 04:51:43;;;;;;;16.87;10.00;;;10.20;99.90;;;;;;482165;246;27917;-81
2023/05/26 04:53:44;;;;;;;14.03;9.97;;;10.10;99.90;;;;;;480810;248;28111;-82
2023/05/26 04:55:46;;;;;;;15.30;9.70;;;10.20;99.90;;;;;;488283;242;28196;-79
2023/05/26 04:57:47;;;;;;;17.50;9.53;;;10.20;99.90;;;;;;476861;247;27999;-79
2023/05/26 04:59:49;;;;;;;18.80;9.97;;;10.30;99.90;;;;;;487736;242;28098;-82
2023/05/26 05:01:49;;;;;;;19.80;9.50;;;10.30;99.90;;;;;;490111;243;27933;-82
2023/05/26 05:03:51;;;;;;;13.53;9.60;;;10.30;99.90;;;;;;480800;248;27885;-80
2023/05/26 05:05:52;;;;;;;21.37;10.17;;;10.30;99.90;;;;;;488254;244;28049;-81
2023/05/26 05:07:53;;;;;;;12.50;9.37;;;10.40;99.90;;;;;;476849;247;28235;-79
2023/05/26 05:09:54;;;;;;;11.40;8.07;;;10.50;99.90;;;;;;487754;242;28020;-80
2023/05/26 05:14:04;;;;;;;13.37;9.30;;;10.60;99.90;;;;;;476553;244;29305;-81
2023/05/26 05:16:05;;;;;;;21.23;10.07;;;10.60;99.90;;;;;;493162;237;27925;-79
2023/05/26 05:18:07;;;;;;;17.20;9.70;;;10.60;99.90;;;;;;499830;239;28054;-82
2023/05/26 05:20:08;;;;;;;17.47;10.50;;;10.70;99.90;;;;;;499805;239;28057;-83
2023/05/26 05:22:09;;;;;;;19.87;10.63;;;10.70;99.90;;;;;;499752;239;28219;-80
2023/05/26 05:24:10;;;;;;;15.40;9.70;;;10.80;99.90;;;;;;499806;239;28131;-79
2023/05/26 05:26:12;;;;;;;15.27;9.00;;;10.80;99.90;;;;;;499767;239;28137;-81
2023/05/26 05:28:13;;;;;;;11.43;7.77;;;10.80;99.90;;;;;;499803;239;27893;-80
2023/05/26 05:30:15;;;;;;;17.40;9.37;;;10.90;99.90;;;;;;499801;239;28126;-80
2023/05/26 05:32:15;;;;;;;18.00;9.73;;;11.00;99.90;;;;;;499815;239;28191;-80
2023/05/26 05:34:17;;;;;;;13.57;9.63;;;11.10;99.90;;;;;;499839;239;28587;-78
2023/05/26 05:36:18;;;;;;;14.17;8.93;;;11.10;99.90;;;;;;499810;239;28038;-80
2023/05/26 05:38:19;;;;;;;18.67;9.10;;;11.20;99.90;;;;;;499850;239;28256;-79
2023/05/26 05:40:22;;;;;;;18.60;10.20;;;;;;;;;;499886;239;28242;-78
2023/05/26 05:42:24;;;;;;;16.13;9.63;;;11.30;99.90;;;;;;499884;238;27592;-79
2023/05/26 05:44:24;;;;;;;13.50;7.90;;;11.30;99.90;;;;;;499751;239;28015;-81
2023/05/26 05:46:25;;;;;;;16.77;9.10;;;11.40;99.90;;;;;;495449;237;28232;-80
2023/05/26 05:50:31;;;;;;;14.50;7.60;;;11.50;99.90;;;;;;486413;244;28301;-82
2023/05/26 05:54:37;;;;;;;15.50;8.90;;;11.60;99.90;;;;;;482210;247;28580;-80
2023/05/26 05:58:43;;;;;;;13.50;9.00;;;11.50;99.90;;;;;;454867;253;28167;-78
2023/05/26 06:00:45;;;;;;;15.10;9.03;;;11.50;99.90;;;;;;454846;256;28162;-81
2023/05/26 06:02:46;;;;;;;17.10;9.13;;;11.60;99.90;;;;;;454799;256;28208;-79
2023/05/26 06:04:47;;;;;;;14.83;8.93;;;11.70;99.90;;;;;;454798;262;28230;-83
2023/05/26 06:06:48;;;;;;;14.17;8.73;;;11.70;99.90;;;;;;454801;257;28292;-80
2023/05/26 06:08:50;;;;;;;14.60;8.13;;;11.70;99.90;;;;;;454808;256;28890;-82
2023/05/26 06:10:51;;;;;;;14.90;8.40;;;11.80;99.90;;;;;;454815;257;28634;-81
2023/05/26 06:12:52;;;;;;;16.90;8.90;;;11.90;99.90;;;;;;454818;262;29063;-80
2023/05/26 06:14:53;;;;;;;11.47;7.93;;;12.00;99.90;;;;;;478686;237;28077;-82
2023/05/26 06:16:55;;;;;;;11.83;7.90;;;12.00;99.90;;;;;;483618;246;28082;-80
2023/05/26 06:18:56;;;;;;;14.00;7.60;;;12.00;99.90;;;;;;483603;246;28120;-82
2023/05/26 06:20:57;;;;;;;16.30;8.40;;;12.10;99.90;;;;;;483659;246;28319;-80
2023/05/26 06:22:58;;;;;;;13.37;8.23;;;12.10;99.90;;;;;;483654;246;28064;-82
2023/05/26 06:25:00;;;;;;;13.70;8.67;;;12.10;99.90;;;;;;483602;246;28873;-85
2023/05/26 06:27:01;;;;;;;15.27;7.87;;;12.20;99.90;;;;;;483648;246;28324;-80
2023/05/26 06:29:03;;;;;;;8.67;7.23;;;12.20;99.90;;;;;;483639;246;28971;-80
2023/05/26 06:31:03;;;;;;;14.07;8.37;;;12.20;99.90;;;;;;483538;246;28909;-82
2023/05/26 06:33:05;;;;;;;14.10;8.50;;;12.30;99.90;;;;;;483535;246;28057;-83
2023/05/26 06:35:06;;;;;;;14.53;8.27;;;12.40;99.90;;;;;;483612;246;28115;-81
2023/05/26 06:37:07;;;;;;;18.10;7.70;;;12.40;99.90;;;;;;485184;237;28033;-84
2023/05/26 06:39:08;;;;;;;14.80;8.57;;;12.50;99.90;;;;;;496227;236;28719;-85
2023/05/26 06:41:10;;;;;;;12.20;8.20;;;12.50;99.90;;;;;;495437;235;28079;-85
2023/05/26 06:43:11;;;;;;;14.77;8.73;;;12.50;99.90;;;;;;494999;239;28171;-84
2023/05/26 06:45:12;;;;;;;12.10;7.87;;;12.60;99.90;;;;;;494957;241;28362;-85
2023/05/26 06:47:14;;;;;;;16.30;7.73;;;12.70;99.90;;;;;;494969;241;28175;-84
2023/05/26 06:49:15;;;;;;;16.00;7.60;;;12.80;99.90;;;;;;494951;239;28292;-83
2023/05/26 06:51:16;;;;;;;11.70;7.47;;;12.90;99.90;;;;;;492360;235;28120;-85
2023/05/26 06:53:17;;;;;;;9.13;6.40;;;13.00;99.90;;;;;;484942;240;28531;-85
2023/05/26 06:55:19;;;;;;;18.40;8.90;;;13.10;99.90;;;;;;484993;240;28730;-85
2023/05/26 06:57:20;;;;;;;13.97;8.00;;;13.10;99.90;;;;;;484996;240;28901;-83
2023/05/26 06:59:21;;;;;;;14.60;7.80;;;13.10;99.90;;;;;;484960;240;28199;-83
2023/05/26 07:01:22;;;;;;;14.80;8.10;;;13.10;99.90;;;;;;488220;240;28061;-84
2023/05/26 07:03:24;;;;;;;15.53;7.43;;;13.20;99.90;;;;;;489188;240;28275;-84
2023/05/26 07:05:25;;;;;;;12.37;7.80;;;13.30;99.90;;;;;;489129;240;28087;-84
2023/05/26 07:07:26;;;;;;;18.97;8.37;;;13.50;99.90;;;;;;489123;240;28306;-84
2023/05/26 07:09:27;;;;;;;12.70;8.10;;;13.60;99.90;;;;;;489168;240;28260;-85
2023/05/26 07:11:29;;;;;;;15.67;7.07;;;13.60;99.90;;;;;;489120;239;28190;-85
2023/05/26 07:13:30;;;;;;;11.83;7.20;;;13.60;99.90;;;;;;489130;239;29013;-84
2023/05/26 07:15:31;;;;;;;14.43;7.07;;;13.60;99.90;;;;;;489154;239;29217;-85
2023/05/26 07:17:32;;;;;;;13.30;7.27;;;13.60;99.90;;;;;;489136;241;28496;-85
2023/05/26 07:19:34;;;;;;;10.70;6.90;;;13.60;99.90;;;;;;489167;240;28165;-84
2023/05/26 07:21:35;;;;;;;11.60;7.10;;;13.60;99.90;;;;;;489148;240;28726;-83
2023/05/26 07:23:36;;;;;;;11.43;6.90;;;13.70;99.90;;;;;;489141;240;29189;-84
2023/05/26 07:25:37;;;;;;;11.77;7.50;;;13.90;99.90;;;;;;489140;240;28803;-84
2023/05/26 07:27:39;;;;;;;16.27;7.13;;;13.90;99.90;;;;;;489148;240;28312;-83
2023/05/26 07:29:40;;;;;;;13.83;7.50;;;13.90;99.90;;;;;;489144;240;28780;-84
2023/05/26 07:31:41;;;;;;;10.83;7.30;;;13.80;99.90;;;;;;489151;240;28462;-84
2023/05/26 07:33:42;;;;;;;14.80;8.30;;;14.00;99.90;;;;;;489179;240;29426;-83
2023/05/26 07:35:44;;;;;;;11.67;7.67;;;14.00;99.90;;;;;;489062;240;28719;-84
2023/05/26 07:37:45;;;;;;;12.33;7.87;;;14.10;99.90;;;;;;489161;240;28571;-84
2023/05/26 07:39:46;;;;;;;19.13;8.43;;;14.10;99.90;;;;;;489160;243;28777;-84
2023/05/26 07:41:47;;;;;;;10.80;7.33;;;14.10;99.90;;;;;;489145;240;28829;-85
2023/05/26 07:43:49;;;;;;;24.77;8.47;;;14.10;99.90;;;;;;489152;240;28472;-85
2023/05/26 07:45:50;;;;;;;11.50;6.90;;;14.20;99.90;;;;;;489148;240;28270;-84
2023/05/26 07:47:51;;;;;;;12.13;7.60;;;14.20;99.90;;;;;;489121;240;29396;-85
2023/05/26 07:49:52;;;;;;;18.13;8.70;;;14.50;99.90;;;;;;489153;240;29305;-85
2023/05/26 07:51:54;;;;;;;12.03;7.63;;;14.50;99.90;;;;;;489153;240;28783;-84
2023/05/26 07:53:55;;;;;;;13.90;7.03;;;14.50;99.90;;;;;;489156;240;28790;-84
2023/05/26 07:55:56;;;;;;;18.87;7.63;;;14.50;99.90;;;;;;489127;240;28900;-84
2023/05/26 07:57:57;;;;;;;13.07;7.90;;;14.70;99.90;;;;;;489174;240;28852;-84
2023/05/26 07:59:59;;;;;;;14.00;7.40;;;14.90;99.90;;;;;;489155;240;28739;-84
2023/05/26 08:02:00;;;;;;;12.50;7.13;;;14.90;99.90;;;;;;489112;241;28718;-84
2023/05/26 08:04:01;;;;;;;13.30;7.03;;;15.00;99.90;;;;;;489149;241;28456;-83
2023/05/26 08:06:02;;;;;;;15.53;7.20;;;15.10;99.90;;;;;;489101;243;29719;-84
2023/05/26 08:08:04;;;;;;;22.17;7.70;;;15.10;99.90;;;;;;489154;240;29327;-83
2023/05/26 08:10:05;;;;;;;13.30;7.60;;;15.10;99.90;;;;;;489159;240;28728;-84
2023/05/26 08:12:07;;;;;;;12.70;6.60;;;15.20;99.90;;;;;;489177;240;28822;-84
2023/05/26 08:14:07;;;;;;;17.30;7.07;;;15.40;99.90;;;;;;489159;240;28728;-83
2023/05/26 08:16:09;;;;;;;13.10;7.20;;;15.40;99.90;;;;;;489118;243;28775;-83
2023/05/26 08:18:10;;;;;;;14.17;7.17;;;15.20;99.90;;;;;;489174;239;28733;-83
2023/05/26 08:20:11;;;;;;;11.53;7.47;;;15.50;99.90;;;;;;489145;240;28782;-84
2023/05/26 08:22:12;;;;;;;13.77;7.90;;;15.40;99.90;;;;;;489165;240;28734;-83
2023/05/26 08:24:14;;;;;;;16.90;7.47;;;15.40;99.90;;;;;;489129;240;29469;-85
2023/05/26 08:26:15;;;;;;;12.63;7.40;;;15.40;99.90;;;;;;489124;240;29037;-83
2023/05/26 08:28:16;;;;;;;13.17;8.13;;;15.40;99.90;;;;;;489147;240;28734;-84
2023/05/26 08:30:18;;;;;;;16.90;7.60;;;15.30;99.90;;;;;;489155;240;28805;-84
2023/05/26 08:32:19;;;;;;;17.00;8.07;;;15.50;99.90;;;;;;489167;240;28782;-84
2023/05/26 08:34:20;;;;;;;14.23;8.13;;;15.40;99.90;;;;;;489098;240;28801;-84
2023/05/26 08:36:21;;;;;;;10.53;7.00;;;15.50;99.90;;;;;;489132;240;28885;-84
2023/05/26 08:38:23;;;;;;;10.43;7.00;;;15.60;99.90;;;;;;489122;240;28819;-83
2023/05/26 08:40:24;;;;;;;14.13;7.30;;;15.60;99.90;;;;;;489094;240;29444;-84
2023/05/26 08:42:25;;;;;;;16.27;7.63;;;15.70;99.90;;;;;;489146;240;29441;-84
2023/05/26 08:44:26;;;;;;;12.23;7.87;;;15.70;99.90;;;;;;489085;240;28726;-84
2023/05/26 08:46:28;;;;;;;12.13;7.07;;;15.80;99.90;;;;;;489161;240;28748;-83
2023/05/26 08:48:29;;;;;;;14.53;7.40;;;15.90;99.90;;;;;;489151;240;28801;-84
2023/05/26 08:50:33;;;;;;;15.63;7.50;;;16.00;99.90;;;;;;489128;240;28760;-83
2023/05/26 08:52:34;;;;;;;13.10;7.50;;;15.90;99.90;;;;;;489139;240;28723;-83
2023/05/26 08:54:36;;;;;;;12.33;7.30;;;15.80;99.90;;;;;;489086;240;28821;-83
2023/05/26 08:56:37;;;;;;;15.70;7.40;;;15.90;99.90;;;;;;489150;240;28738;-84
2023/05/26 08:58:38;;;;;;;14.10;7.80;;;16.20;99.90;;;;;;489116;241;28804;-84
2023/05/26 09:00:40;;;;;;;16.93;8.37;;;16.00;99.90;;;;;;489149;240;28702;-84
2023/05/26 09:02:41;;;;;;;12.03;7.50;;;16.00;99.90;;;;;;489058;240;29405;-84
2023/05/26 09:04:42;;;;;;;10.67;7.10;;;16.20;99.90;;;;;;489070;240;29376;-83
2023/05/26 09:06:43;;;;;;;13.97;7.03;;;16.10;99.90;;;;;;489137;240;28805;-83
2023/05/26 09:08:44;;;;;;;16.63;7.60;;;16.40;99.90;;;;;;489166;240;28738;-83
2023/05/26 09:10:46;;;;;;;11.67;7.07;;;16.60;99.90;;;;;;489136;240;28789;-83
2023/05/26 09:12:47;;;;;;;13.80;8.43;;;16.50;99.90;;;;;;489142;240;28739;-83
2023/05/26 09:14:48;;;;;;;17.70;7.70;;;16.60;99.90;;;;;;489114;241;28748;-83
2023/05/26 09:16:49;;;;;;;10.10;7.40;;;16.50;99.90;;;;;;489171;240;28699;-83
2023/05/26 09:18:51;;;;;;;12.67;7.70;;;16.60;99.90;;;;;;489168;240;29462;-83
2023/05/26 09:20:52;;;;;;;20.70;7.67;;;16.60;99.90;;;;;;489179;239;29359;-84
2023/05/26 09:22:53;;;;;;;13.03;7.87;;;16.50;99.90;;;;;;489167;239;29426;-83
2023/05/26 09:24:55;;;;;;;17.30;7.87;;;16.90;99.90;;;;;;489104;239;28718;-84
2023/05/26 09:26:56;;;;;;;15.07;7.20;;;16.60;99.90;;;;;;489171;240;28705;-83
2023/05/26 09:28:57;;;;;;;16.43;7.70;;;16.40;99.90;;;;;;489197;240;28805;-83
2023/05/26 09:30:58;;;;;;;12.53;7.00;;;16.50;99.90;;;;;;489176;240;28766;-83
2023/05/26 09:32:59;;;;;;;13.10;8.10;;;16.70;99.90;;;;;;489128;239;28715;-83
2023/05/26 09:35:01;;;;;;;13.18;7.50;;;16.60;99.90;;;;;;485004;244;37153;-84
2023/05/26 09:37:02;;;;;;;10.00;5.93;;;16.80;99.90;;;;;;489166;240;27959;-83
2023/05/26 09:39:03;;;;;;;14.57;7.83;;;16.90;99.90;;;;;;489181;241;29389;-83
2023/05/26 09:41:04;;;;;;;9.70;6.63;;;17.00;99.90;;;;;;489176;240;28789;-83
2023/05/26 09:43:06;;;;;;;12.70;7.50;;;16.80;99.90;;;;;;489183;240;28732;-83
2023/05/26 09:45:07;;;;;;;12.53;7.07;;;17.20;99.90;;;;;;489118;239;28728;-83
2023/05/26 09:47:08;;;;;;;15.67;7.67;;;17.30;99.90;;;;;;489161;240;28702;-84
2023/05/26 09:49:09;;;;;;;14.53;8.80;;;17.10;99.90;;;;;;489173;239;28731;-84
2023/05/26 09:51:11;;;;;;;14.30;7.37;;;16.90;99.90;;;;;;489122;240;28715;-84
2023/05/26 09:53:12;;;;;;;20.23;8.10;;;16.80;99.90;;;;;;489148;240;28837;-84
2023/05/26 09:55:13;;;;;;;10.73;7.00;;;17.00;99.90;;;;;;489060;240;29383;-83
2023/05/26 09:57:14;;;;;;;14.17;7.60;;;17.00;99.90;;;;;;489164;240;28724;-83
2023/05/26 09:59:16;;;;;;;12.30;7.27;;;17.20;99.90;;;;;;489179;239;28738;-83
2023/05/26 10:01:17;;;;;;;14.43;7.43;;;17.10;99.90;;;;;;489163;240;28729;-83
2023/05/26 10:03:18;;;;;;;14.63;7.17;;;17.10;99.90;;;;;;489139;239;28814;-83
2023/05/26 10:05:19;;;;;;;14.23;8.17;;;17.10;99.90;;;;;;489129;239;28782;-83
2023/05/26 10:07:21;;;;;;;13.63;6.63;;;17.40;99.90;;;;;;489167;240;28778;-84
2023/05/26 10:09:22;;;;;;;14.83;7.97;;;17.30;99.90;;;;;;489138;240;28737;-83
2023/05/26 10:11:23;;;;;;;16.17;7.17;;;17.30;99.90;;;;;;489121;240;28837;-83
2023/05/26 10:13:25;;;;;;;10.80;6.53;;;17.50;99.90;;;;;;489163;240;29398;-84
2023/05/26 10:15:26;;;;;;;16.30;7.50;;;17.60;99.90;;;;;;489087;240;29357;-83
2023/05/26 10:17:27;;;;;;;19.00;8.57;;;17.50;99.90;;;;;;489159;241;28721;-83
2023/05/26 10:19:28;;;;;;;14.00;7.27;;;17.30;99.90;;;;;;489180;240;28740;-83
2023/05/26 10:21:30;;;;;;;19.00;7.33;;;17.60;99.90;;;;;;489169;240;28718;-83
2023/05/26 10:23:31;;;;;;;13.40;6.97;;;17.70;99.90;;;;;;489160;240;28801;-83
2023/05/26 10:25:32;;;;;;;14.70;7.17;;;17.70;99.90;;;;;;489110;239;28702;-84
2023/05/26 10:27:33;;;;;;;10.63;6.60;;;17.90;99.90;;;;;;489151;240;28715;-83
2023/05/26 10:29:34;;;;;;;9.23;6.53;;;17.80;99.90;;;;;;489162;240;28748;-82
2023/05/26 10:31:36;;;;;;;12.60;6.40;;;17.80;99.90;;;;;;489156;240;29392;-82
2023/05/26 10:33:37;;;;;;;16.10;7.00;;;17.90;99.90;;;;;;489165;240;28828;-82
2023/05/26 10:35:38;;;;;;;14.73;6.60;;;17.80;99.90;;;;;;489112;240;28785;-83
2023/05/26 10:37:40;;;;;;;13.70;6.07;;;17.70;99.90;;;;;;489172;240;28729;-83
2023/05/26 10:39:41;;;;;;;13.73;6.83;;;17.80;99.90;;;;;;489166;240;28741;-83
2023/05/26 10:41:42;;;;;;;9.40;6.27;;;17.70;99.90;;;;;;489167;240;28713;-83
2023/05/26 10:43:43;;;;;;;18.10;6.10;;;17.80;99.40;;;;;;489165;239;28728;-83